sensor_id;sensor_type;location;lat;lon;timestamp;temperature;humidity
52725;DHT22;38621;52.830;6.914;2022-09-11T00:00:41;13.90;99.90
52725;DHT22;38621;52.830;6.914;2022-09-11T00:03:07;13.90;99.90
52725;DHT22;38621;52.830;6.914;2022-09-11T00:05:38;13.90;99.90
52725;DHT22;38621;52.830;6.914;2022-09-11T00:08:06;13.80;99.90
52725;DHT22;38621;52.830;6.914;2022-09-11T00:10:34;13.70;99.90
52725;DHT22;38621;52.830;6.914;2022-09-11T00:13:02;13.70;99.90
52725;DHT22;38621;52.830;6.914;2022-09-11T00:15:28;13.70;99.90
52725;DHT22;38621;52.830;6.914;2022-09-11T00:17:55;13.70;99.90
52725;DHT22;38621;52.830;6.914;2022-09-11T00:20:21;13.60;99.90
52725;DHT22;38621;52.830;6.914;2022-09-11T00:22:47;13.50;99.90
52725;DHT22;38621;52.830;6.914;2022-09-11T00:25:13;13.40;99.90
52725;DHT22;38621;52.830;6.914;2022-09-11T00:27:39;13.30;99.90
52725;DHT22;38621;52.830;6.914;2022-09-11T00:30:05;13.30;99.90
52725;DHT22;38621;52.830;6.914;2022-09-11T00:32:31;13.30;99.90
52725;DHT22;38621;52.830;6.914;2022-09-11T00:34:58;13.30;99.90
52725;DHT22;38621;52.830;6.914;2022-09-11T00:37:23;13.30;99.90
52725;DHT22;38621;52.830;6.914;2022-09-11T00:39:49;13.30;99.90
52725;DHT22;38621;52.830;6.914;2022-09-11T00:42:15;13.20;99.90
52725;DHT22;38621;52.830;6.914;2022-09-11T00:47:08;13.20;99.90
52725;DHT22;38621;52.830;6.914;2022-09-11T00:49:40;13.20;99.90
52725;DHT22;38621;52.830;6.914;2022-09-11T00:52:19;13.20;99.90
52725;DHT22;38621;52.830;6.914;2022-09-11T00:55:01;13.20;99.90
52725;DHT22;38621;52.830;6.914;2022-09-11T00:57:32;13.20;99.90
52725;DHT22;38621;52.830;6.914;2022-09-11T00:59:58;13.20;99.90
52725;DHT22;38621;52.830;6.914;2022-09-11T01:02:26;13.20;99.90
52725;DHT22;38621;52.830;6.914;2022-09-11T01:04:54;13.20;99.90
52725;DHT22;38621;52.830;6.914;2022-09-11T01:07:21;13.20;99.90
52725;DHT22;38621;52.830;6.914;2022-09-11T01:09:47;13.10;99.90
52725;DHT22;38621;52.830;6.914;2022-09-11T01:15:01;13.10;99.90
52725;DHT22;38621;52.830;6.914;2022-09-11T01:18:18;13.10;99.90
52725;DHT22;38621;52.830;6.914;2022-09-11T01:23:47;13.00;99.90
52725;DHT22;38621;52.830;6.914;2022-09-11T01:29:35;13.00;99.90
52725;DHT22;38621;52.830;6.914;2022-09-11T01:37:37;12.90;99.90
52725;DHT22;38621;52.830;6.914;2022-09-11T01:40:09;13.00;99.90
52725;DHT22;38621;52.830;6.914;2022-09-11T01:42:41;13.00;99.90
52725;DHT22;38621;52.830;6.914;2022-09-11T01:45:09;12.90;99.90
52725;DHT22;38621;52.830;6.914;2022-09-11T01:47:38;12.70;99.90
52725;DHT22;38621;52.830;6.914;2022-09-11T01:50:09;12.60;99.90
52725;DHT22;38621;52.830;6.914;2022-09-11T01:52:53;12.50;99.90
52725;DHT22;38621;52.830;6.914;2022-09-11T01:55:30;12.50;99.90
52725;DHT22;38621;52.830;6.914;2022-09-11T01:58:08;12.50;99.90
52725;DHT22;38621;52.830;6.914;2022-09-11T02:00:37;12.50;99.90
52725;DHT22;38621;52.830;6.914;2022-09-11T02:03:18;12.50;99.90
52725;DHT22;38621;52.830;6.914;2022-09-11T02:06:00;12.50;99.90
52725;DHT22;38621;52.830;6.914;2022-09-11T02:08:39;12.50;99.90
52725;DHT22;38621;52.830;6.914;2022-09-11T02:11:09;12.50;99.90
52725;DHT22;38621;52.830;6.914;2022-09-11T02:16:50;12.60;99.90
52725;DHT22;38621;52.830;6.914;2022-09-11T02:19:18;12.60;99.90
52725;DHT22;38621;52.830;6.914;2022-09-11T02:21:45;12.60;99.90
52725;DHT22;38621;52.830;6.914;2022-09-11T02:24:13;12.60;99.90
52725;DHT22;38621;52.830;6.914;2022-09-11T02:26:44;12.60;99.90
52725;DHT22;38621;52.830;6.914;2022-09-11T02:29:12;12.60;99.90
52725;DHT22;38621;52.830;6.914;2022-09-11T02:31:40;12.50;99.90
52725;DHT22;38621;52.830;6.914;2022-09-11T02:34:06;12.60;99.90
52725;DHT22;38621;52.830;6.914;2022-09-11T02:44:35;12.50;99.90
52725;DHT22;38621;52.830;6.914;2022-09-11T02:50:39;12.50;99.90
52725;DHT22;38621;52.830;6.914;2022-09-11T02:53:13;12.50;99.90
52725;DHT22;38621;52.830;6.914;2022-09-11T02:56:04;12.50;99.90
52725;DHT22;38621;52.830;6.914;2022-09-11T02:58:49;12.40;99.90
52725;DHT22;38621;52.830;6.914;2022-09-11T03:01:20;12.40;99.90
52725;DHT22;38621;52.830;6.914;2022-09-11T03:03:46;12.40;99.90
52725;DHT22;38621;52.830;6.914;2022-09-11T03:06:23;12.40;99.90
52725;DHT22;38621;52.830;6.914;2022-09-11T03:08:50;12.40;99.90
52725;DHT22;38621;52.830;6.914;2022-09-11T03:11:16;12.50;99.90
52725;DHT22;38621;52.830;6.914;2022-09-11T03:13:44;12.40;99.90
52725;DHT22;38621;52.830;6.914;2022-09-11T03:16:10;12.50;99.90
52725;DHT22;38621;52.830;6.914;2022-09-11T03:18:37;12.50;99.90
52725;DHT22;38621;52.830;6.914;2022-09-11T03:21:03;12.50;99.90
52725;DHT22;38621;52.830;6.914;2022-09-11T03:23:30;12.50;99.90
52725;DHT22;38621;52.830;6.914;2022-09-11T03:25:56;12.40;99.90
52725;DHT22;38621;52.830;6.914;2022-09-11T03:28:23;12.40;99.90
52725;DHT22;38621;52.830;6.914;2022-09-11T03:30:49;12.30;99.90
52725;DHT22;38621;52.830;6.914;2022-09-11T03:33:15;12.20;99.90
52725;DHT22;38621;52.830;6.914;2022-09-11T03:35:44;12.30;99.90
52725;DHT22;38621;52.830;6.914;2022-09-11T03:38:10;12.20;99.90
52725;DHT22;38621;52.830;6.914;2022-09-11T03:40:37;12.20;99.90
52725;DHT22;38621;52.830;6.914;2022-09-11T03:43:02;12.20;99.90
52725;DHT22;38621;52.830;6.914;2022-09-11T03:45:28;12.10;99.90
52725;DHT22;38621;52.830;6.914;2022-09-11T03:47:54;12.10;99.90
52725;DHT22;38621;52.830;6.914;2022-09-11T03:50:20;12.10;99.90
52725;DHT22;38621;52.830;6.914;2022-09-11T03:52:45;12.10;99.90
52725;DHT22;38621;52.830;6.914;2022-09-11T03:55:11;12.10;99.90
52725;DHT22;38621;52.830;6.914;2022-09-11T03:57:37;12.10;99.90
52725;DHT22;38621;52.830;6.914;2022-09-11T04:00:04;12.10;99.90
52725;DHT22;38621;52.830;6.914;2022-09-11T04:02:31;12.10;99.90
52725;DHT22;38621;52.830;6.914;2022-09-11T04:04:56;12.10;99.90
52725;DHT22;38621;52.830;6.914;2022-09-11T04:07:22;12.10;99.90
52725;DHT22;38621;52.830;6.914;2022-09-11T04:09:48;12.00;99.90
52725;DHT22;38621;52.830;6.914;2022-09-11T04:12:14;12.00;99.90
52725;DHT22;38621;52.830;6.914;2022-09-11T04:14:40;12.00;99.90
52725;DHT22;38621;52.830;6.914;2022-09-11T04:17:06;12.00;99.90
52725;DHT22;38621;52.830;6.914;2022-09-11T04:19:35;12.00;99.90
52725;DHT22;38621;52.830;6.914;2022-09-11T04:22:01;12.00;99.90
52725;DHT22;38621;52.830;6.914;2022-09-11T04:24:28;12.00;99.90
52725;DHT22;38621;52.830;6.914;2022-09-11T04:26:53;12.00;99.90
52725;DHT22;38621;52.830;6.914;2022-09-11T04:29:19;12.00;99.90
52725;DHT22;38621;52.830;6.914;2022-09-11T04:31:47;12.00;99.90
52725;DHT22;38621;52.830;6.914;2022-09-11T04:34:12;12.10;99.90
52725;DHT22;38621;52.830;6.914;2022-09-11T04:36:38;12.10;99.90
52725;DHT22;38621;52.830;6.914;2022-09-11T04:39:04;12.00;99.90
52725;DHT22;38621;52.830;6.914;2022-09-11T04:41:29;12.00;99.90
52725;DHT22;38621;52.830;6.914;2022-09-11T04:43:56;11.90;99.90
52725;DHT22;38621;52.830;6.914;2022-09-11T04:46:23;11.90;99.90
52725;DHT22;38621;52.830;6.914;2022-09-11T04:48:51;11.90;99.90
52725;DHT22;38621;52.830;6.914;2022-09-11T04:51:31;11.90;99.90
52725;DHT22;38621;52.830;6.914;2022-09-11T04:53:58;11.90;99.90
52725;DHT22;38621;52.830;6.914;2022-09-11T04:56:29;11.90;99.90
52725;DHT22;38621;52.830;6.914;2022-09-11T04:59:01;12.00;99.90
52725;DHT22;38621;52.830;6.914;2022-09-11T05:01:29;11.90;99.90
52725;DHT22;38621;52.830;6.914;2022-09-11T05:03:55;11.90;99.90
52725;DHT22;38621;52.830;6.914;2022-09-11T05:06:21;11.90;99.90
52725;DHT22;38621;52.830;6.914;2022-09-11T05:08:48;11.90;99.90
52725;DHT22;38621;52.830;6.914;2022-09-11T05:11:17;11.90;99.90
52725;DHT22;38621;52.830;6.914;2022-09-11T05:13:45;11.90;99.90
52725;DHT22;38621;52.830;6.914;2022-09-11T05:16:13;12.00;99.90
52725;DHT22;38621;52.830;6.914;2022-09-11T05:18:41;12.00;99.90
52725;DHT22;38621;52.830;6.914;2022-09-11T05:21:15;12.00;99.90
52725;DHT22;38621;52.830;6.914;2022-09-11T05:23:41;12.00;99.90
52725;DHT22;38621;52.830;6.914;2022-09-11T05:26:13;12.00;99.90
52725;DHT22;38621;52.830;6.914;2022-09-11T05:28:39;11.90;99.90
52725;DHT22;38621;52.830;6.914;2022-09-11T05:31:14;11.90;99.90
52725;DHT22;38621;52.830;6.914;2022-09-11T05:33:41;11.90;99.90
52725;DHT22;38621;52.830;6.914;2022-09-11T05:36:09;11.90;99.90
52725;DHT22;38621;52.830;6.914;2022-09-11T05:38:35;11.90;99.90
52725;DHT22;38621;52.830;6.914;2022-09-11T05:41:08;11.90;99.90
52725;DHT22;38621;52.830;6.914;2022-09-11T05:43:36;11.90;99.90
52725;DHT22;38621;52.830;6.914;2022-09-11T05:46:02;11.90;99.90
52725;DHT22;38621;52.830;6.914;2022-09-11T05:48:30;11.90;99.90
52725;DHT22;38621;52.830;6.914;2022-09-11T05:50:57;12.00;99.90
52725;DHT22;38621;52.830;6.914;2022-09-11T05:53:29;12.10;99.90
52725;DHT22;38621;52.830;6.914;2022-09-11T05:56:06;12.20;99.90
52725;DHT22;38621;52.830;6.914;2022-09-11T05:58:32;12.20;99.90
52725;DHT22;38621;52.830;6.914;2022-09-11T06:01:06;12.30;99.90
52725;DHT22;38621;52.830;6.914;2022-09-11T06:03:33;12.40;99.90
52725;DHT22;38621;52.830;6.914;2022-09-11T06:06:01;12.40;99.90
52725;DHT22;38621;52.830;6.914;2022-09-11T06:08:27;12.40;99.90
52725;DHT22;38621;52.830;6.914;2022-09-11T06:10:53;12.50;99.90
52725;DHT22;38621;52.830;6.914;2022-09-11T06:13:20;12.60;99.90
52725;DHT22;38621;52.830;6.914;2022-09-11T06:15:47;12.60;99.90
52725;DHT22;38621;52.830;6.914;2022-09-11T06:18:14;12.70;99.90
52725;DHT22;38621;52.830;6.914;2022-09-11T06:20:40;12.90;99.90
52725;DHT22;38621;52.830;6.914;2022-09-11T06:23:09;13.00;99.90
52725;DHT22;38621;52.830;6.914;2022-09-11T06:25:35;13.10;99.90
52725;DHT22;38621;52.830;6.914;2022-09-11T06:28:01;13.20;99.90
52725;DHT22;38621;52.830;6.914;2022-09-11T06:30:27;13.30;99.90
52725;DHT22;38621;52.830;6.914;2022-09-11T06:32:52;13.40;99.90
52725;DHT22;38621;52.830;6.914;2022-09-11T06:35:21;13.50;99.90
52725;DHT22;38621;52.830;6.914;2022-09-11T06:37:48;13.60;99.90
52725;DHT22;38621;52.830;6.914;2022-09-11T06:40:13;13.70;99.90
52725;DHT22;38621;52.830;6.914;2022-09-11T06:42:39;13.80;99.90
52725;DHT22;38621;52.830;6.914;2022-09-11T06:45:05;13.80;99.90
52725;DHT22;38621;52.830;6.914;2022-09-11T06:47:32;13.90;99.90
52725;DHT22;38621;52.830;6.914;2022-09-11T06:49:58;14.00;99.90
52725;DHT22;38621;52.830;6.914;2022-09-11T06:52:24;14.20;99.90
52725;DHT22;38621;52.830;6.914;2022-09-11T06:54:49;14.30;99.90
52725;DHT22;38621;52.830;6.914;2022-09-11T06:57:15;14.30;99.90
52725;DHT22;38621;52.830;6.914;2022-09-11T06:59:41;14.40;99.90
52725;DHT22;38621;52.830;6.914;2022-09-11T07:02:10;14.50;99.90
52725;DHT22;38621;52.830;6.914;2022-09-11T07:04:36;14.60;99.90
52725;DHT22;38621;52.830;6.914;2022-09-11T07:07:01;14.70;99.90
52725;DHT22;38621;52.830;6.914;2022-09-11T07:09:27;14.80;99.90
52725;DHT22;38621;52.830;6.914;2022-09-11T07:11:53;15.00;99.90
52725;DHT22;38621;52.830;6.914;2022-09-11T07:14:19;15.10;99.90
52725;DHT22;38621;52.830;6.914;2022-09-11T07:16:51;15.20;99.90
52725;DHT22;38621;52.830;6.914;2022-09-11T07:19:20;15.40;99.90
52725;DHT22;38621;52.830;6.914;2022-09-11T07:21:46;15.40;99.90
52725;DHT22;38621;52.830;6.914;2022-09-11T07:24:12;15.50;99.90
52725;DHT22;38621;52.830;6.914;2022-09-11T07:26:37;15.60;99.90
52725;DHT22;38621;52.830;6.914;2022-09-11T07:29:03;15.70;99.90
52725;DHT22;38621;52.830;6.914;2022-09-11T07:31:30;15.80;99.90
52725;DHT22;38621;52.830;6.914;2022-09-11T07:33:57;15.90;99.90
52725;DHT22;38621;52.830;6.914;2022-09-11T07:36:26;16.00;99.90
52725;DHT22;38621;52.830;6.914;2022-09-11T07:38:53;16.20;99.90
52725;DHT22;38621;52.830;6.914;2022-09-11T07:41:22;16.30;99.90
52725;DHT22;38621;52.830;6.914;2022-09-11T07:43:53;16.40;99.90
52725;DHT22;38621;52.830;6.914;2022-09-11T07:46:20;16.50;99.90
52725;DHT22;38621;52.830;6.914;2022-09-11T07:48:46;16.60;99.90
52725;DHT22;38621;52.830;6.914;2022-09-11T07:51:14;16.70;99.90
52725;DHT22;38621;52.830;6.914;2022-09-11T07:53:41;16.70;99.90
52725;DHT22;38621;52.830;6.914;2022-09-11T07:56:16;16.90;99.90
52725;DHT22;38621;52.830;6.914;2022-09-11T07:58:43;16.90;99.90
52725;DHT22;38621;52.830;6.914;2022-09-11T08:01:12;17.00;99.90
52725;DHT22;38621;52.830;6.914;2022-09-11T08:03:38;17.00;99.90
52725;DHT22;38621;52.830;6.914;2022-09-11T08:06:06;17.10;99.90
52725;DHT22;38621;52.830;6.914;2022-09-11T08:08:32;17.20;99.90
52725;DHT22;38621;52.830;6.914;2022-09-11T08:11:04;17.30;99.90
52725;DHT22;38621;52.830;6.914;2022-09-11T08:13:31;17.40;99.90
52725;DHT22;38621;52.830;6.914;2022-09-11T08:15:58;17.50;99.90
52725;DHT22;38621;52.830;6.914;2022-09-11T08:18:24;17.60;99.90
52725;DHT22;38621;52.830;6.914;2022-09-11T08:20:49;17.70;99.90
52725;DHT22;38621;52.830;6.914;2022-09-11T08:23:15;17.70;99.90
52725;DHT22;38621;52.830;6.914;2022-09-11T08:25:41;17.70;99.90
52725;DHT22;38621;52.830;6.914;2022-09-11T08:28:07;17.80;99.90
52725;DHT22;38621;52.830;6.914;2022-09-11T08:30:33;17.90;99.90
52725;DHT22;38621;52.830;6.914;2022-09-11T08:33:04;18.00;99.90
52725;DHT22;38621;52.830;6.914;2022-09-11T08:35:31;18.10;99.90
52725;DHT22;38621;52.830;6.914;2022-09-11T08:37:58;18.20;99.90
52725;DHT22;38621;52.830;6.914;2022-09-11T08:40:26;18.20;99.90
52725;DHT22;38621;52.830;6.914;2022-09-11T08:42:54;18.40;99.90
52725;DHT22;38621;52.830;6.914;2022-09-11T08:45:25;18.50;99.90
52725;DHT22;38621;52.830;6.914;2022-09-11T08:47:55;18.60;99.90
52725;DHT22;38621;52.830;6.914;2022-09-11T08:50:27;18.70;99.90
52725;DHT22;38621;52.830;6.914;2022-09-11T08:52:56;18.70;99.90
52725;DHT22;38621;52.830;6.914;2022-09-11T08:55:47;18.80;99.90
52725;DHT22;38621;52.830;6.914;2022-09-11T09:01:11;18.90;99.90
52725;DHT22;38621;52.830;6.914;2022-09-11T09:11:58;18.60;99.90
52725;DHT22;38621;52.830;6.914;2022-09-11T09:17:18;18.60;99.90
52725;DHT22;38621;52.830;6.914;2022-09-11T09:19:55;18.50;99.90
52725;DHT22;38621;52.830;6.914;2022-09-11T09:22:57;18.50;99.90
52725;DHT22;38621;52.830;6.914;2022-09-11T09:25:25;18.60;99.90
52725;DHT22;38621;52.830;6.914;2022-09-11T09:36:13;19.10;99.90
52725;DHT22;38621;52.830;6.914;2022-09-11T09:38:39;19.20;99.90
52725;DHT22;38621;52.830;6.914;2022-09-11T09:45:16;19.50;99.90
52725;DHT22;38621;52.830;6.914;2022-09-11T09:47:11;19.60;99.90
52725;DHT22;38621;52.830;6.914;2022-09-11T09:49:39;19.70;99.90
52725;DHT22;38621;52.830;6.914;2022-09-11T09:52:18;19.60;99.90
52725;DHT22;38621;52.830;6.914;2022-09-11T09:54:58;19.50;99.90
52725;DHT22;38621;52.830;6.914;2022-09-11T09:57:32;19.50;99.90
52725;DHT22;38621;52.830;6.914;2022-09-11T10:00:05;19.60;99.90
52725;DHT22;38621;52.830;6.914;2022-09-11T10:02:51;19.80;99.90
52725;DHT22;38621;52.830;6.914;2022-09-11T10:05:41;19.90;99.90
52725;DHT22;38621;52.830;6.914;2022-09-11T10:11:01;20.00;99.90
52725;DHT22;38621;52.830;6.914;2022-09-11T10:13:31;20.10;99.90
52725;DHT22;38621;52.830;6.914;2022-09-11T10:15:59;20.10;99.90
52725;DHT22;38621;52.830;6.914;2022-09-11T10:21:25;20.00;99.90
52725;DHT22;38621;52.830;6.914;2022-09-11T10:23:58;20.00;99.90
52725;DHT22;38621;52.830;6.914;2022-09-11T10:26:37;20.10;99.90
52725;DHT22;38621;52.830;6.914;2022-09-11T10:29:13;20.10;99.90
52725;DHT22;38621;52.830;6.914;2022-09-11T10:31:47;20.20;99.90
52725;DHT22;38621;52.830;6.914;2022-09-11T10:34:15;20.30;99.90
52725;DHT22;38621;52.830;6.914;2022-09-11T10:36:54;20.30;99.90
52725;DHT22;38621;52.830;6.914;2022-09-11T10:39:21;20.40;99.90
52725;DHT22;38621;52.830;6.914;2022-09-11T10:41:53;20.50;99.90
52725;DHT22;38621;52.830;6.914;2022-09-11T10:44:22;20.40;99.90
52725;DHT22;38621;52.830;6.914;2022-09-11T10:47:15;20.30;99.90
52725;DHT22;38621;52.830;6.914;2022-09-11T10:49:43;20.20;99.90
52725;DHT22;38621;52.830;6.914;2022-09-11T10:57:44;20.40;99.90
52725;DHT22;38621;52.830;6.914;2022-09-11T11:00:24;20.40;99.90
52725;DHT22;38621;52.830;6.914;2022-09-11T11:03:25;20.40;99.90
52725;DHT22;38621;52.830;6.914;2022-09-11T11:30:28;20.30;99.90
52725;DHT22;38621;52.830;6.914;2022-09-11T11:35:43;20.30;99.90
52725;DHT22;38621;52.830;6.914;2022-09-11T11:43:51;20.40;99.90
52725;DHT22;38621;52.830;6.914;2022-09-11T11:46:21;20.30;99.90
52725;DHT22;38621;52.830;6.914;2022-09-11T11:51:18;20.50;99.90
52725;DHT22;38621;52.830;6.914;2022-09-11T11:54:02;20.50;99.90
52725;DHT22;38621;52.830;6.914;2022-09-11T12:01:58;20.50;99.90
52725;DHT22;38621;52.830;6.914;2022-09-11T12:07:15;20.70;99.90
52725;DHT22;38621;52.830;6.914;2022-09-11T12:09:49;20.70;99.90
52725;DHT22;38621;52.830;6.914;2022-09-11T12:12:16;20.80;99.90
52725;DHT22;38621;52.830;6.914;2022-09-11T12:14:53;20.90;99.90
52725;DHT22;38621;52.830;6.914;2022-09-11T12:22:38;21.30;99.90
52725;DHT22;38621;52.830;6.914;2022-09-11T12:32:44;21.30;99.90
52725;DHT22;38621;52.830;6.914;2022-09-11T12:35:57;21.20;99.90
52725;DHT22;38621;52.830;6.914;2022-09-11T12:41:15;21.20;99.90
52725;DHT22;38621;52.830;6.914;2022-09-11T12:45:51;21.10;99.90
52725;DHT22;38621;52.830;6.914;2022-09-11T12:48:20;21.00;99.90
52725;DHT22;38621;52.830;6.914;2022-09-11T12:50:54;20.90;99.90
52725;DHT22;38621;52.830;6.914;2022-09-11T12:53:43;20.80;99.90
52725;DHT22;38621;52.830;6.914;2022-09-11T12:56:17;20.60;99.90
52725;DHT22;38621;52.830;6.914;2022-09-11T12:58:51;20.50;99.90
52725;DHT22;38621;52.830;6.914;2022-09-11T13:01:34;20.40;99.90
52725;DHT22;38621;52.830;6.914;2022-09-11T13:11:57;20.20;99.90
52725;DHT22;38621;52.830;6.914;2022-09-11T13:14:49;20.20;99.90
52725;DHT22;38621;52.830;6.914;2022-09-11T13:22:34;20.00;99.90
52725;DHT22;38621;52.830;6.914;2022-09-11T13:25:12;19.90;99.90
52725;DHT22;38621;52.830;6.914;2022-09-11T13:27:46;19.80;99.90
52725;DHT22;38621;52.830;6.914;2022-09-11T13:30:18;19.60;99.90
52725;DHT22;38621;52.830;6.914;2022-09-11T13:32:45;19.50;99.90
52725;DHT22;38621;52.830;6.914;2022-09-11T13:35:33;19.40;99.90
52725;DHT22;38621;52.830;6.914;2022-09-11T13:43:04;19.20;99.90
52725;DHT22;38621;52.830;6.914;2022-09-11T13:45:29;19.10;99.90
52725;DHT22;38621;52.830;6.914;2022-09-11T13:47:55;19.10;99.90
52725;DHT22;38621;52.830;6.914;2022-09-11T13:50:22;19.10;99.90
52725;DHT22;38621;52.830;6.914;2022-09-11T13:52:50;19.10;99.90
52725;DHT22;38621;52.830;6.914;2022-09-11T13:55:20;19.10;99.90
52725;DHT22;38621;52.830;6.914;2022-09-11T14:03:01;19.10;99.90
52725;DHT22;38621;52.830;6.914;2022-09-11T14:05:28;19.10;99.90
52725;DHT22;38621;52.830;6.914;2022-09-11T14:15:41;19.30;99.90
52725;DHT22;38621;52.830;6.914;2022-09-11T14:18:35;19.30;99.90
52725;DHT22;38621;52.830;6.914;2022-09-11T14:21:10;19.40;99.90
52725;DHT22;38621;52.830;6.914;2022-09-11T14:23:49;19.50;99.90
52725;DHT22;38621;52.830;6.914;2022-09-11T14:27:02;19.50;99.90
52725;DHT22;38621;52.830;6.914;2022-09-11T14:29:24;19.70;99.90
52725;DHT22;38621;52.830;6.914;2022-09-11T14:32:00;19.80;99.90
52725;DHT22;38621;52.830;6.914;2022-09-11T14:34:40;19.80;99.90
52725;DHT22;38621;52.830;6.914;2022-09-11T14:37:11;19.80;99.90
52725;DHT22;38621;52.830;6.914;2022-09-11T14:39:43;19.90;99.90
52725;DHT22;38621;52.830;6.914;2022-09-11T14:42:19;20.00;99.90
52725;DHT22;38621;52.830;6.914;2022-09-11T14:44:46;20.10;99.90
52725;DHT22;38621;52.830;6.914;2022-09-11T14:47:22;20.20;99.90
52725;DHT22;38621;52.830;6.914;2022-09-11T14:49:53;20.30;99.90
52725;DHT22;38621;52.830;6.914;2022-09-11T14:52:24;20.30;99.90
52725;DHT22;38621;52.830;6.914;2022-09-11T14:54:50;20.40;99.90
52725;DHT22;38621;52.830;6.914;2022-09-11T14:57:25;20.40;99.90
52725;DHT22;38621;52.830;6.914;2022-09-11T14:59:51;20.50;99.90
52725;DHT22;38621;52.830;6.914;2022-09-11T15:02:23;20.50;99.90
52725;DHT22;38621;52.830;6.914;2022-09-11T15:04:50;20.50;99.90
52725;DHT22;38621;52.830;6.914;2022-09-11T15:07:17;20.50;99.90
52725;DHT22;38621;52.830;6.914;2022-09-11T15:09:43;20.50;99.90
52725;DHT22;38621;52.830;6.914;2022-09-11T15:12:11;20.50;99.90
52725;DHT22;38621;52.830;6.914;2022-09-11T15:14:37;20.50;99.90
52725;DHT22;38621;52.830;6.914;2022-09-11T15:17:05;20.50;99.90
52725;DHT22;38621;52.830;6.914;2022-09-11T15:19:32;20.60;99.90
52725;DHT22;38621;52.830;6.914;2022-09-11T15:22:00;20.60;99.90
52725;DHT22;38621;52.830;6.914;2022-09-11T15:24:26;20.60;99.90
52725;DHT22;38621;52.830;6.914;2022-09-11T15:26:53;20.70;99.90
52725;DHT22;38621;52.830;6.914;2022-09-11T15:29:20;20.70;99.90
52725;DHT22;38621;52.830;6.914;2022-09-11T15:31:46;20.70;99.90
52725;DHT22;38621;52.830;6.914;2022-09-11T15:34:13;20.60;99.90
52725;DHT22;38621;52.830;6.914;2022-09-11T15:36:40;20.60;99.90
52725;DHT22;38621;52.830;6.914;2022-09-11T15:39:13;20.70;99.90
52725;DHT22;38621;52.830;6.914;2022-09-11T15:41:39;20.70;99.90
52725;DHT22;38621;52.830;6.914;2022-09-11T15:44:25;20.70;99.90
52725;DHT22;38621;52.830;6.914;2022-09-11T15:46:53;20.70;99.90
52725;DHT22;38621;52.830;6.914;2022-09-11T15:49:21;20.60;99.90
52725;DHT22;38621;52.830;6.914;2022-09-11T15:51:48;20.60;99.90
52725;DHT22;38621;52.830;6.914;2022-09-11T15:54:14;20.60;99.90
52725;DHT22;38621;52.830;6.914;2022-09-11T15:56:40;20.60;99.90
52725;DHT22;38621;52.830;6.914;2022-09-11T15:59:07;20.60;99.90
52725;DHT22;38621;52.830;6.914;2022-09-11T16:01:34;20.60;99.90
52725;DHT22;38621;52.830;6.914;2022-09-11T16:04:04;20.70;99.90
52725;DHT22;38621;52.830;6.914;2022-09-11T16:06:34;20.70;99.90
52725;DHT22;38621;52.830;6.914;2022-09-11T16:11:55;20.80;99.90
52725;DHT22;38621;52.830;6.914;2022-09-11T16:14:24;20.80;99.90
52725;DHT22;38621;52.830;6.914;2022-09-11T16:16:50;20.90;99.90
52725;DHT22;38621;52.830;6.914;2022-09-11T16:19:18;20.80;99.90
52725;DHT22;38621;52.830;6.914;2022-09-11T16:21:45;20.80;99.90
52725;DHT22;38621;52.830;6.914;2022-09-11T16:24:11;20.80;99.90
52725;DHT22;38621;52.830;6.914;2022-09-11T16:26:39;21.00;99.90
52725;DHT22;38621;52.830;6.914;2022-09-11T16:29:10;21.20;99.90
52725;DHT22;38621;52.830;6.914;2022-09-11T16:31:37;21.30;99.90
52725;DHT22;38621;52.830;6.914;2022-09-11T16:34:06;21.30;99.90
52725;DHT22;38621;52.830;6.914;2022-09-11T16:36:32;21.30;99.90
52725;DHT22;38621;52.830;6.914;2022-09-11T16:39:07;21.30;99.90
52725;DHT22;38621;52.830;6.914;2022-09-11T16:41:34;21.20;99.90
52725;DHT22;38621;52.830;6.914;2022-09-11T16:44:01;21.10;99.90
52725;DHT22;38621;52.830;6.914;2022-09-11T16:46:28;21.00;99.90
52725;DHT22;38621;52.830;6.914;2022-09-11T16:48:54;20.90;99.90
52725;DHT22;38621;52.830;6.914;2022-09-11T16:51:22;20.80;99.90
52725;DHT22;38621;52.830;6.914;2022-09-11T16:53:48;20.70;99.90
52725;DHT22;38621;52.830;6.914;2022-09-11T16:56:19;20.60;99.90
52725;DHT22;38621;52.830;6.914;2022-09-11T16:58:45;20.50;99.90
52725;DHT22;38621;52.830;6.914;2022-09-11T17:01:20;20.40;99.90
52725;DHT22;38621;52.830;6.914;2022-09-11T17:03:48;20.30;99.90
52725;DHT22;38621;52.830;6.914;2022-09-11T17:06:15;20.20;99.90
52725;DHT22;38621;52.830;6.914;2022-09-11T17:08:42;20.10;99.90
52725;DHT22;38621;52.830;6.914;2022-09-11T17:11:11;20.00;99.90
52725;DHT22;38621;52.830;6.914;2022-09-11T17:13:38;19.90;99.90
52725;DHT22;38621;52.830;6.914;2022-09-11T17:16:08;19.80;99.90
52725;DHT22;38621;52.830;6.914;2022-09-11T17:18:34;19.80;99.90
52725;DHT22;38621;52.830;6.914;2022-09-11T17:21:04;19.70;99.90
52725;DHT22;38621;52.830;6.914;2022-09-11T17:23:35;19.60;99.90
52725;DHT22;38621;52.830;6.914;2022-09-11T17:26:12;19.60;99.90
52725;DHT22;38621;52.830;6.914;2022-09-11T17:28:39;19.50;99.90
52725;DHT22;38621;52.830;6.914;2022-09-11T17:31:07;19.40;99.90
52725;DHT22;38621;52.830;6.914;2022-09-11T17:33:36;19.30;99.90
52725;DHT22;38621;52.830;6.914;2022-09-11T17:36:05;19.30;99.90
52725;DHT22;38621;52.830;6.914;2022-09-11T17:38:32;19.20;99.90
52725;DHT22;38621;52.830;6.914;2022-09-11T17:41:01;19.10;99.90
52725;DHT22;38621;52.830;6.914;2022-09-11T17:43:29;19.10;99.90
52725;DHT22;38621;52.830;6.914;2022-09-11T17:46:03;19.00;99.90
52725;DHT22;38621;52.830;6.914;2022-09-11T17:48:29;18.90;99.90
52725;DHT22;38621;52.830;6.914;2022-09-11T17:51:11;18.90;99.90
52725;DHT22;38621;52.830;6.914;2022-09-11T17:53:39;18.80;99.90
52725;DHT22;38621;52.830;6.914;2022-09-11T17:56:11;18.70;99.90
52725;DHT22;38621;52.830;6.914;2022-09-11T17:58:39;18.70;99.90
52725;DHT22;38621;52.830;6.914;2022-09-11T18:01:05;18.70;99.90
52725;DHT22;38621;52.830;6.914;2022-09-11T18:03:33;18.70;99.90
52725;DHT22;38621;52.830;6.914;2022-09-11T18:06:00;18.70;99.90
52725;DHT22;38621;52.830;6.914;2022-09-11T18:08:27;18.60;99.90
52725;DHT22;38621;52.830;6.914;2022-09-11T18:10:58;18.60;99.90
52725;DHT22;38621;52.830;6.914;2022-09-11T18:13:26;18.60;99.90
52725;DHT22;38621;52.830;6.914;2022-09-11T18:15:52;18.50;99.90
52725;DHT22;38621;52.830;6.914;2022-09-11T18:18:18;18.50;99.90
52725;DHT22;38621;52.830;6.914;2022-09-11T18:20:44;18.30;99.90
52725;DHT22;38621;52.830;6.914;2022-09-11T18:23:12;18.20;99.90
52725;DHT22;38621;52.830;6.914;2022-09-11T18:25:38;18.10;99.90
52725;DHT22;38621;52.830;6.914;2022-09-11T18:28:05;18.00;99.90
52725;DHT22;38621;52.830;6.914;2022-09-11T18:30:32;18.00;99.90